createdAt,value
2022-10-05T00:03:16.453Z,101106.20
2022-10-05T00:08:23.847Z,101095.60
2022-10-05T00:13:28.689Z,101096.60
2022-10-05T00:18:28.316Z,101090.60
2022-10-05T00:23:33.463Z,101101.60
2022-10-05T00:28:35.066Z,101094.60
2022-10-05T00:33:33.904Z,101087.60
2022-10-05T00:38:33.479Z,101090.60
2022-10-05T00:43:56.695Z,101083.80
2022-10-05T00:49:09.700Z,101085.00
2022-10-05T00:54:35.831Z,101094.20
2022-10-05T00:59:52.733Z,101102.80
2022-10-05T01:05:00.931Z,101100.00
2022-10-05T01:10:12.941Z,101088.00
2022-10-05T01:15:19.399Z,101089.80
2022-10-05T01:20:39.720Z,101102.80
2022-10-05T01:25:59.180Z,101094.40
2022-10-05T01:31:08.159Z,101096.40
2022-10-05T01:36:20.830Z,101096.20
2022-10-05T01:41:34.093Z,101099.40
2022-10-05T01:46:43.073Z,101087.20
2022-10-05T01:51:54.606Z,101085.60
2022-10-05T01:57:18.474Z,101103.60
2022-10-05T02:02:24.424Z,101104.60
2022-10-05T02:07:31.031Z,101104.60
2022-10-05T02:12:38.847Z,101109.60
2022-10-05T02:17:47.335Z,101087.80
2022-10-05T02:22:50.819Z,101085.20
2022-10-05T02:28:01.608Z,101067.00
2022-10-05T02:33:08.383Z,101041.20
2022-10-05T02:38:22.032Z,101031.40
2022-10-05T02:43:41.745Z,101057.40
2022-10-05T02:48:56.011Z,101052.00
2022-10-05T02:54:14.453Z,101043.20
2022-10-05T02:59:23.528Z,101052.20
2022-10-05T03:04:36.064Z,101048.20
2022-10-05T03:09:44.267Z,101064.60
2022-10-05T03:15:00.087Z,101074.00
2022-10-05T03:20:21.326Z,101079.40
2022-10-05T03:25:57.378Z,101091.40
2022-10-05T03:31:07.050Z,101088.40
2022-10-05T03:36:18.335Z,101095.00
2022-10-05T03:41:30.762Z,101084.00
2022-10-05T03:46:50.833Z,101078.00
2022-10-05T03:52:03.571Z,101071.00
2022-10-05T03:57:12.193Z,101065.40
2022-10-05T04:02:21.534Z,101075.00
2022-10-05T04:07:37.687Z,101067.40
2022-10-05T04:12:43.381Z,101065.60
2022-10-05T04:17:47.397Z,101050.60
2022-10-05T04:23:00.970Z,101052.40
2022-10-05T04:28:13.578Z,101055.00
2022-10-05T04:33:16.380Z,101064.60
2022-10-05T04:38:36.276Z,101064.40
2022-10-05T04:43:55.941Z,101070.20
2022-10-05T04:49:25.621Z,101067.60
2022-10-05T04:54:44.731Z,101067.60
2022-10-05T05:00:14.110Z,101064.60
2022-10-05T05:05:48.397Z,101071.40
2022-10-05T05:11:24.401Z,101081.20
2022-10-05T05:16:37.905Z,101087.20
2022-10-05T05:21:49.271Z,101085.20
2022-10-05T05:27:12.353Z,101088.20
2022-10-05T05:32:28.583Z,101087.20
2022-10-05T05:37:41.821Z,101089.00
2022-10-05T05:42:55.751Z,101081.80
2022-10-05T05:48:00.806Z,101069.20
2022-10-05T05:53:11.113Z,101085.00
2022-10-05T05:58:35.422Z,101094.20
2022-10-05T06:03:45.777Z,101079.80
2022-10-05T06:08:50.820Z,101087.00
2022-10-05T06:14:07.817Z,101095.80
2022-10-05T06:19:15.437Z,101101.60
2022-10-05T06:24:24.606Z,101081.60
2022-10-05T06:29:34.430Z,101087.20
2022-10-05T06:35:05.564Z,101083.80
2022-10-05T06:40:29.414Z,101086.80
2022-10-05T06:45:49.915Z,101089.60
2022-10-05T06:51:25.302Z,101099.20
2022-10-05T06:56:51.327Z,101109.80
2022-10-05T07:02:08.115Z,101110.80
2022-10-05T07:07:22.121Z,101102.80
2022-10-05T07:12:51.647Z,101103.60
2022-10-05T07:18:08.898Z,101097.60
2022-10-05T07:23:34.823Z,101096.20
2022-10-05T07:28:46.006Z,101087.40
2022-10-05T07:33:56.382Z,101095.00
2022-10-05T07:39:04.332Z,101090.60
2022-10-05T07:44:17.616Z,101085.40
2022-10-05T07:49:36.007Z,101085.00
2022-10-05T07:54:56.542Z,101072.80
2022-10-05T08:00:06.688Z,101080.40
2022-10-05T08:05:24.650Z,101075.20
2022-10-05T08:10:41.074Z,101081.00
2022-10-05T08:15:50.737Z,101067.60
2022-10-05T08:20:56.692Z,101066.80
2022-10-05T08:26:13.472Z,101060.60
2022-10-05T08:31:25.195Z,101050.80
2022-10-05T08:36:53.648Z,101046.60
2022-10-05T08:42:29.299Z,101049.60
2022-10-05T08:47:59.510Z,101056.00
2022-10-05T08:53:35.375Z,101056.40
2022-10-05T08:59:04.743Z,101050.60
2022-10-05T09:04:33.591Z,101049.80
2022-10-05T09:10:13.265Z,101036.20
2022-10-05T09:15:46.468Z,101027.20
2022-10-05T09:20:55.313Z,101024.00
2022-10-05T09:26:09.477Z,101012.60
2022-10-05T09:31:40.293Z,101017.40
2022-10-05T09:37:25.513Z,101024.80
2022-10-05T09:42:53.856Z,101015.60
2022-10-05T09:48:54.897Z,101002.40
2022-10-05T09:54:53.730Z,101022.40
2022-10-05T10:00:22.125Z,101027.60
2022-10-05T10:06:00.745Z,101023.40
2022-10-05T10:11:12.933Z,101027.20
2022-10-05T10:16:31.623Z,101028.80
2022-10-05T10:22:17.506Z,101033.00
2022-10-05T10:27:48.079Z,101028.40
2022-10-05T10:33:37.206Z,101029.60
2022-10-05T10:38:48.873Z,101039.00
2022-10-05T10:44:49.468Z,101010.80
2022-10-05T10:50:20.380Z,100996.40
2022-10-05T10:55:40.516Z,100982.40
2022-10-05T11:00:54.828Z,100980.80
2022-10-05T11:06:33.047Z,100975.40
2022-10-05T11:12:33.640Z,100964.40
2022-10-05T11:18:08.947Z,100981.60
2022-10-05T11:23:47.495Z,100970.20
2022-10-05T11:29:22.742Z,100967.80
2022-10-05T11:35:14.162Z,100960.00
2022-10-05T11:41:05.502Z,100964.00
2022-10-05T11:46:20.169Z,100957.40
2022-10-05T11:51:50.363Z,100960.40
2022-10-05T11:57:02.187Z,100953.00
2022-10-05T12:02:36.907Z,100954.20
2022-10-05T12:07:52.689Z,100948.60
2022-10-05T12:13:20.006Z,100953.20
2022-10-05T12:18:46.389Z,100958.60
2022-10-05T12:24:00.251Z,100954.20
2022-10-05T12:29:09.838Z,100945.40
2022-10-05T12:34:24.207Z,100948.20
2022-10-05T12:39:38.659Z,100945.40
2022-10-05T12:45:03.997Z,100946.40
2022-10-05T12:50:37.099Z,100943.20
2022-10-05T12:55:50.222Z,100940.40
2022-10-05T13:01:01.667Z,100937.20
2022-10-05T13:06:19.047Z,100943.20
2022-10-05T13:11:25.165Z,100946.00
2022-10-05T13:16:40.994Z,100958.60
2022-10-05T13:22:03.420Z,100963.80
2022-10-05T13:27:13.019Z,100955.60
2022-10-05T13:32:22.396Z,100941.60
2022-10-05T13:37:32.612Z,100953.20
2022-10-05T13:42:44.637Z,100944.00
2022-10-05T13:48:00.114Z,100952.60
2022-10-05T13:53:12.870Z,100951.60
2022-10-05T13:58:29.920Z,100941.60
2022-10-05T14:03:35.199Z,100935.00
2022-10-05T14:08:49.425Z,100933.40
2022-10-05T14:13:53.368Z,100935.00
2022-10-05T14:19:22.154Z,100930.20
2022-10-05T14:24:44.058Z,100932.60
2022-10-05T14:29:45.385Z,100932.60
2022-10-05T14:34:58.261Z,100921.80
2022-10-05T14:40:23.156Z,100925.00
2022-10-05T14:45:26.367Z,100928.40
2022-10-05T14:50:29.858Z,100928.20
2022-10-05T14:56:06.867Z,100924.40
2022-10-05T15:01:16.847Z,100924.40
2022-10-05T15:06:29.757Z,100915.80
2022-10-05T15:11:47.359Z,100913.60
2022-10-05T15:16:47.356Z,100908.00
2022-10-05T15:22:07.272Z,100921.60
2022-10-05T15:27:14.127Z,100922.60
2022-10-05T15:32:32.639Z,100905.80
2022-10-05T15:37:43.502Z,100904.00
2022-10-05T15:42:45.470Z,100894.60
2022-10-05T15:48:01.181Z,100890.80
2022-10-05T15:53:13.302Z,100907.40
2022-10-05T15:58:56.206Z,100911.20
2022-10-05T16:04:04.982Z,100892.00
2022-10-05T16:09:23.420Z,100899.20
2022-10-05T16:14:39.241Z,100896.60
2022-10-05T16:19:49.307Z,100888.80
2022-10-05T16:25:16.191Z,100851.00
2022-10-05T16:30:21.055Z,100862.20
2022-10-05T16:35:36.167Z,100867.20
2022-10-05T16:40:50.742Z,100861.60
2022-10-05T16:46:03.388Z,100855.00
2022-10-05T16:51:32.739Z,100859.00
2022-10-05T16:56:43.211Z,100854.20
2022-10-05T17:01:57.481Z,100860.00
2022-10-05T17:07:33.183Z,100874.40
2022-10-05T17:13:04.122Z,100871.60
2022-10-05T17:18:51.630Z,100872.80
2022-10-05T17:24:02.688Z,100878.00
2022-10-05T17:29:15.719Z,100874.60
2022-10-05T17:34:37.683Z,100869.40
2022-10-05T17:39:56.360Z,100858.40
2022-10-05T17:45:02.817Z,100859.00
2022-10-05T17:50:20.456Z,100859.20
2022-10-05T17:55:43.969Z,100856.20
2022-10-05T18:01:17.206Z,100850.20
2022-10-05T18:06:44.747Z,100856.40
2022-10-05T18:11:50.009Z,100852.80
2022-10-05T18:17:13.983Z,100856.20
2022-10-05T18:22:31.370Z,100854.00
2022-10-05T18:28:23.664Z,100852.60
2022-10-05T18:33:54.226Z,100846.80
2022-10-05T18:39:05.259Z,100851.20
2022-10-05T18:44:25.375Z,100843.40
2022-10-05T18:49:49.471Z,100847.00
2022-10-05T18:55:04.978Z,100846.40
2022-10-05T19:00:15.017Z,100846.20
2022-10-05T19:05:48.077Z,100839.60
2022-10-05T19:10:56.497Z,100834.40
2022-10-05T19:16:12.466Z,100837.80
2022-10-05T19:21:26.954Z,100837.20
2022-10-05T19:26:44.593Z,100826.60
2022-10-05T19:31:51.567Z,100830.40
2022-10-05T19:37:08.137Z,100834.60
2022-10-05T19:42:44.832Z,100832.20
2022-10-05T19:48:01.430Z,100838.40
2022-10-05T19:53:17.369Z,100839.60
2022-10-05T19:58:44.971Z,100838.20
2022-10-05T20:03:53.660Z,100836.60
2022-10-05T20:09:25.030Z,100845.00
2022-10-05T20:14:59.211Z,100842.40
2022-10-05T20:20:32.807Z,100848.40
2022-10-05T20:25:41.746Z,100849.40
2022-10-05T20:30:41.681Z,100852.80
2022-10-05T20:35:42.266Z,100852.40
2022-10-05T20:40:46.746Z,100857.00
2022-10-05T20:46:02.793Z,100851.20
2022-10-05T20:51:02.372Z,100852.00
2022-10-05T20:56:27.883Z,100848.20
2022-10-05T21:01:29.107Z,100853.40
2022-10-05T21:06:29.728Z,100859.80
2022-10-05T21:11:29.871Z,100865.60
2022-10-05T21:16:30.757Z,100877.00
2022-10-05T21:21:30.257Z,100877.80
2022-10-05T21:26:30.580Z,100881.60
2022-10-05T21:31:31.282Z,100872.80
2022-10-05T21:36:30.732Z,100879.40
2022-10-05T21:41:30.409Z,100883.00
2022-10-05T21:46:30.452Z,100887.80
2022-10-05T21:51:32.373Z,100892.40
2022-10-05T21:56:39.766Z,100890.80
2022-10-05T22:01:39.184Z,100888.20
2022-10-05T22:06:41.524Z,100886.80
2022-10-05T22:11:41.339Z,100888.60
2022-10-05T22:16:43.592Z,100888.20
2022-10-05T22:21:42.582Z,100878.00
2022-10-05T22:26:43.776Z,100886.00
2022-10-05T22:31:45.381Z,100890.80
2022-10-05T22:36:44.694Z,100877.40
2022-10-05T22:41:44.344Z,100887.00
2022-10-05T22:46:44.921Z,100876.20
2022-10-05T22:51:43.814Z,100886.00
2022-10-05T22:56:42.755Z,100887.00
2022-10-05T23:01:42.274Z,100892.40
2022-10-05T23:06:41.482Z,100891.00
2022-10-05T23:11:40.965Z,100890.20
2022-10-05T23:16:39.923Z,100883.60
2022-10-05T23:21:38.654Z,100888.60
2022-10-05T23:26:38.055Z,100888.60
2022-10-05T23:31:37.597Z,100896.20
2022-10-05T23:36:36.715Z,100901.20
2022-10-05T23:41:35.850Z,100906.40
2022-10-05T23:46:39.299Z,100899.00
2022-10-05T23:51:38.773Z,100901.00
2022-10-05T23:56:38.297Z,100902.20
